Time;durP1;ratioP1;P1;durP2;ratioP2;P2;SDS_P1;SDS_P2;PMS_P1;PMS_P2;Temp;Humidity;BMP_temperature;BMP_pressure;BME280_temperature;BME280_humidity;BME280_pressure;Samples;Min_cycle;Max_cycle;Signal;HPM_P1;HPM_P2
2023/10/02 00:01:48;;;;;;;;;16.33;16.00;;;;;21.20;61.66;101595.44;4941514;28;45262;-69
2023/10/02 00:04:17;;;;;;;;;20.00;17.00;;;;;21.20;61.44;101595.44;4941630;28;45348;-68
2023/10/02 00:06:47;;;;;;;;;20.33;15.33;;;;;21.20;61.25;101594.59;4941908;28;45520;-69
2023/10/02 00:09:13;;;;;;;;;18.33;17.33;;;;;21.13;61.27;101583.72;4941374;28;47552;-69
2023/10/02 00:11:39;;;;;;;;;16.00;15.00;;;;;21.17;61.55;101595.00;4941620;28;45430;-69
2023/10/02 00:14:19;;;;;;;;;22.67;18.00;;;;;21.18;61.63;101605.63;4941631;28;45380;-69
2023/10/02 00:16:59;;;;;;;;;21.00;13.33;;;;;21.19;61.89;101603.75;4942315;28;45240;-69
2023/10/02 00:19:27;;;;;;;;;19.67;15.33;;;;;21.18;61.80;101604.78;4953586;28;47798;-70
2023/10/02 00:22:08;;;;;;;;;20.67;17.33;;;;;21.12;61.75;101601.00;4958832;28;45412;-70
2023/10/02 00:24:37;;;;;;;;;20.33;16.67;;;;;21.05;62.08;101591.16;4945163;28;45367;-69
2023/10/02 00:27:04;;;;;;;;;23.00;18.00;;;;;21.05;62.41;101607.38;4941462;28;45470;-69
2023/10/02 00:29:30;;;;;;;;;25.33;23.33;;;;;21.08;62.76;101615.94;4941055;28;48016;-69
2023/10/02 00:31:56;;;;;;;;;26.33;24.00;;;;;21.03;63.08;101606.72;4941393;28;45414;-69
2023/10/02 00:34:32;;;;;;;;;24.00;21.33;;;;;21.03;62.89;101612.13;4941372;28;45292;-69
2023/10/02 00:37:05;;;;;;;;;24.00;24.00;;;;;21.05;63.14;101610.91;4941352;28;45622;-68
2023/10/02 00:39:36;;;;;;;;;28.67;24.00;;;;;21.05;62.90;101612.78;4945940;28;47426;-68
2023/10/02 00:44:51;;;;;;;;;25.67;23.67;;;;;20.98;62.97;101595.63;4940905;28;45313;-69
2023/10/02 00:47:38;;;;;;;;;25.00;22.00;;;;;20.98;63.34;101604.56;4955108;28;45211;-69
2023/10/02 00:50:10;;;;;;;;;29.67;24.00;;;;;20.89;63.35;101597.63;4958329;28;46763;-69
2023/10/02 00:52:42;;;;;;;;;25.67;22.67;;;;;20.91;63.40;101596.41;4953504;28;45516;-70
2023/10/02 00:55:10;;;;;;;;;25.33;21.67;;;;;20.89;63.23;101593.06;4958570;28;45319;-68
2023/10/02 00:57:39;;;;;;;;;25.67;23.67;;;;;20.65;63.60;101569.91;4938055;28;45333;-69
2023/10/02 01:00:18;;;;;;;;;28.67;22.33;;;;;20.88;63.37;101613.00;4949083;28;47438;-69
2023/10/02 01:02:51;;;;;;;;;23.67;21.33;;;;;20.87;63.51;101607.78;4944274;28;45438;-69
2023/10/02 01:05:21;;;;;;;;;29.00;24.33;;;;;20.87;63.71;101605.09;4959315;28;45343;-68
2023/10/02 01:07:48;;;;;;;;;25.33;21.67;;;;;20.68;63.74;101571.41;4960355;28;45157;-69
2023/10/02 01:10:20;;;;;;;;;28.00;26.00;;;;;20.83;63.93;101599.22;4959372;28;47349;-69
2023/10/02 01:12:49;;;;;;;;;25.33;22.00;;;;;20.81;63.88;101595.84;4959946;28;45516;-68
2023/10/02 01:15:19;;;;;;;;;25.33;20.67;;;;;20.81;63.95;101595.84;4960123;28;45469;-68
2023/10/02 01:17:49;;;;;;;;;32.00;25.00;;;;;20.80;64.07;101596.88;4946671;28;45584;-68
2023/10/02 01:20:21;;;;;;;;;23.00;23.00;;;;;20.65;64.11;101569.09;4956864;28;47598;-69
2023/10/02 01:22:52;;;;;;;;;28.00;23.67;;;;;20.75;64.19;101599.31;4946839;28;45468;-69
2023/10/02 01:25:23;;;;;;;;;36.67;26.67;;;;;20.74;64.52;101599.50;4940490;28;45502;-69
2023/10/02 01:27:51;;;;;;;;;25.33;21.67;;;;;20.61;64.50;101579.41;4944970;28;45430;-68
2023/10/02 01:30:20;;;;;;;;;25.00;23.67;;;;;20.68;64.43;101594.88;4959086;28;46669;-69
2023/10/02 01:33:06;;;;;;;;;27.00;23.33;;;;;20.69;64.56;101594.69;4946959;28;45571;-70
2023/10/02 01:35:34;;;;;;;;;20.33;17.67;;;;;20.67;64.73;101583.25;4940772;28;45324;-69
2023/10/02 01:38:00;;;;;;;;;27.00;24.33;;;;;20.65;64.66;101585.28;4951491;28;45581;-69
2023/10/02 01:40:33;;;;;;;;;22.67;18.67;;;;;20.64;65.09;101586.31;4938073;28;46272;-69
2023/10/02 01:43:11;;;;;;;;;24.33;18.00;;;;;20.60;65.08;101574.19;4939712;28;45362;-70
2023/10/02 01:45:43;;;;;;;;;21.33;20.33;;;;;20.61;65.07;101584.81;4938765;28;45498;-67
2023/10/02 01:51:21;;;;;;;;;23.33;20.00;;;;;20.54;65.06;101578.50;4958790;28;45700;-70
2023/10/02 01:53:48;;;;;;;;;21.67;18.67;;;;;20.50;65.24;101582.59;4940307;28;45343;-67
2023/10/02 01:56:15;;;;;;;;;29.33;21.67;;;;;20.42;65.36;101568.34;4940497;28;45227;-69
2023/10/02 01:58:41;;;;;;;;;21.00;17.67;;;;;20.48;65.66;101583.81;4941347;28;45406;-69
2023/10/02 02:01:10;;;;;;;;;19.00;19.00;;;;;20.48;65.05;101573.84;4950122;28;48952;-69
2023/10/02 02:03:41;;;;;;;;;17.33;14.67;;;;;20.45;65.54;101570.69;4957833;28;45481;-69
2023/10/02 02:06:10;;;;;;;;;23.33;19.00;;;;;20.48;65.62;101568.47;4939577;28;45329;-69
2023/10/02 02:08:36;;;;;;;;;22.67;16.67;;;;;20.25;65.75;101546.09;4955933;28;45247;-71
2023/10/02 02:11:20;;;;;;;;;23.00;21.00;;;;;20.38;65.58;101567.03;4951327;28;47305;-69
2023/10/02 02:13:53;;;;;;;;;20.00;15.67;;;;;20.15;66.17;101543.69;4941080;28;45480;-69
2023/10/02 02:16:22;;;;;;;;;20.00;17.67;;;;;20.26;66.07;101564.81;4939446;28;45328;-69
2023/10/02 02:18:53;;;;;;;;;16.67;14.67;;;;;20.27;65.87;101569.19;4939834;28;45656;-69
2023/10/02 02:21:20;;;;;;;;;19.67;15.67;;;;;20.26;66.33;101564.81;4939825;28;45713;-68
2023/10/02 02:23:46;;;;;;;;;21.00;17.67;;;;;20.07;66.36;101532.16;4940248;28;45501;-69
2023/10/02 02:26:22;;;;;;;;;19.00;17.33;;;;;20.18;66.41;101573.00;4958847;28;45329;-69
2023/10/02 02:28:51;;;;;;;;;19.67;17.33;;;;;20.03;66.82;101545.19;4941670;28;45262;-68
2023/10/02 02:31:30;;;;;;;;;18.67;16.33;;;;;19.91;66.78;101536.72;4943677;28;46617;-69
2023/10/02 02:34:14;;;;;;;;;20.00;18.33;;;;;19.81;66.83;101516.41;4955142;28;45522;-68
2023/10/02 02:36:41;;;;;;;;;18.67;18.33;;;;;20.03;66.87;101554.13;4939550;28;45453;-69
2023/10/02 02:39:17;;;;;;;;;24.00;20.33;;;;;20.02;67.00;101557.84;4939419;28;45490;-69
2023/10/02 02:41:43;;;;;;;;;18.33;14.67;;;;;19.98;67.12;101551.13;4954939;28;46489;-70
2023/10/02 02:44:29;;;;;;;;;19.67;16.00;;;;;19.60;67.14;101496.41;4958066;28;45394;-69
2023/10/02 02:46:54;;;;;;;;;23.67;17.33;;;;;19.91;67.19;101563.69;4956108;28;45446;-67
2023/10/02 02:49:21;;;;;;;;;24.33;17.33;;;;;19.87;67.14;101553.47;4943478;28;45364;-68
2023/10/02 02:51:48;;;;;;;;;20.33;17.67;;;;;19.88;67.19;101555.97;4950138;28;46773;-68
2023/10/02 02:54:14;;;;;;;;;21.33;17.67;;;;;19.71;67.31;101525.63;4958020;28;45652;-70
2023/10/02 02:56:40;;;;;;;;;14.33;14.00;;;;;19.91;67.07;101568.25;4958447;28;45255;-69
2023/10/02 02:59:08;;;;;;;;;24.33;19.67;;;;;19.83;67.75;101561.09;4946739;28;50519;-69
2023/10/02 03:01:33;;;;;;;;;25.67;19.33;;;;;19.79;67.73;101550.84;4938769;28;46554;-68
2023/10/02 03:04:11;;;;;;;;;23.00;20.00;;;;;19.46;67.59;101491.81;4939196;28;45252;-69
2023/10/02 03:06:37;;;;;;;;;25.00;18.67;;;;;19.73;67.76;101547.88;4938800;28;45487;-69
2023/10/02 03:09:05;;;;;;;;;24.00;21.67;;;;;19.59;67.87;101527.09;4957134;28;45292;-68
2023/10/02 03:11:32;;;;;;;;;17.67;15.67;;;;;19.58;67.64;101519.19;4952567;28;47463;-68
2023/10/02 03:14:13;;;;;;;;;16.33;15.33;;;;;19.70;67.70;101550.09;4947332;28;45338;-68
2023/10/02 03:16:40;;;;;;;;;17.33;16.00;;;;;19.65;67.75;101539.88;4957688;28;45351;-68
2023/10/02 03:19:07;;;;;;;;;23.00;18.33;;;;;19.60;67.90;101536.84;4948232;28;45208;-69
2023/10/02 03:21:37;;;;;;;;;19.00;14.00;;;;;19.63;67.88;101541.06;4946392;28;47713;-70
2023/10/02 03:24:04;;;;;;;;;20.33;16.67;;;;;19.58;67.66;101532.66;4937203;28;45549;-70
2023/10/02 03:29:06;;;;;;;;;15.00;13.67;;;;;19.54;68.13;101548.38;4948030;28;45573;-69
2023/10/02 03:31:36;;;;;;;;;18.33;16.00;;;;;19.51;68.67;101535.25;4949584;28;46760;-68
2023/10/02 03:36:52;;;;;;;;;20.67;16.67;;;;;19.39;68.99;101540.22;4938497;28;45610;-69
2023/10/02 03:39:24;;;;;;;;;16.67;16.67;;;;;19.35;68.91;101538.91;4938819;28;45619;-68
2023/10/02 03:41:55;;;;;;;;;18.33;16.33;;;;;19.27;69.18;101532.78;4952232;28;47429;-68
2023/10/02 03:44:22;;;;;;;;;20.33;16.33;;;;;19.26;69.46;101528.41;4941529;28;45532;-69
2023/10/02 03:46:48;;;;;;;;;16.33;14.33;;;;;19.20;69.45;101529.09;4942719;28;45324;-68
2023/10/02 03:49:17;;;;;;;;;21.00;17.00;;;;;19.19;69.47;101530.13;4941206;28;46060;-69
2023/10/02 03:51:44;;;;;;;;;21.00;16.33;;;;;19.19;69.50;101532.81;4951145;28;47499;-69
2023/10/02 03:54:20;;;;;;;;;23.00;19.33;;;;;19.18;69.20;101521.19;4954281;28;45754;-71
2023/10/02 03:56:51;;;;;;;;;14.00;12.67;;;;;19.21;69.10;101528.09;4949453;28;45481;-69
2023/10/02 03:59:17;;;;;;;;;14.00;13.67;;;;;19.23;69.05;101534.16;4937555;28;45235;-69
2023/10/02 04:01:43;;;;;;;;;21.00;17.00;;;;;19.10;68.98;101514.03;4945254;28;46718;-69
2023/10/02 04:06:44;;;;;;;;;18.00;15.00;;;;;19.04;69.45;101512.06;4946091;28;45481;-69
2023/10/02 04:09:14;;;;;;;;;16.67;13.67;;;;;18.99;69.52;101510.91;4938285;28;45406;-69
2023/10/02 04:11:42;;;;;;;;;18.00;15.67;;;;;19.06;69.52;101523.50;4937902;28;46692;-70
2023/10/02 04:14:17;;;;;;;;;17.67;15.67;;;;;18.98;69.50;101515.47;4946052;28;45543;-68
2023/10/02 04:16:52;;;;;;;;;20.67;18.00;;;;;18.97;70.30;101531.81;4944837;28;45345;-68
2023/10/02 04:19:23;;;;;;;;;19.67;15.67;;;;;19.00;69.70;101520.69;4938349;28;45284;-69
2023/10/02 04:21:51;;;;;;;;;43.00;35.67;;;;;19.01;69.62;101519.66;4945417;28;46957;-69
2023/10/02 04:24:23;;;;;;;;;14.00;13.67;;;;;19.04;69.62;101519.31;4952853;28;45425;-69
2023/10/02 04:26:54;;;;;;;;;18.33;16.33;;;;;19.07;69.42;101525.19;4949802;28;45328;-68
2023/10/02 04:29:28;;;;;;;;;16.00;13.67;;;;;19.08;69.18;101526.84;4940207;28;45521;-69
2023/10/02 04:32:14;;;;;;;;;23.67;17.33;;;;;19.06;69.37;101518.13;4950239;28;47750;-68
2023/10/02 04:34:50;;;;;;;;;19.67;16.33;;;;;19.01;69.06;101523.19;4940687;28;45332;-69
2023/10/02 04:37:22;;;;;;;;;18.33;14.00;;;;;19.03;69.33;101518.47;4943892;28;45296;-68
2023/10/02 04:39:54;;;;;;;;;19.67;18.00;;;;;19.03;68.96;101517.66;4948517;28;45485;-70
2023/10/02 04:42:21;;;;;;;;;18.00;16.00;;;;;19.04;68.99;101519.31;4948607;28;47472;-68
2023/10/02 04:44:48;;;;;;;;;16.00;14.67;;;;;19.01;68.97;101509.72;4955613;28;45318;-69
2023/10/02 04:47:19;;;;;;;;;18.67;14.00;;;;;19.06;68.77;101519.97;4940475;28;45349;-73
2023/10/02 04:55:31;;;;;;;;;21.33;18.67;;;;;18.84;68.82;101492.84;4957107;28;45509;-69
2023/10/02 04:58:04;;;;;;;;;24.67;23.00;;;;;19.04;69.03;101520.16;4955028;28;45446;-68
2023/10/02 05:00:33;;;;;;;;;21.00;19.00;;;;;19.02;68.67;101515.94;4950530;28;45516;-70
2023/10/02 05:03:09;;;;;;;;;16.33;15.00;;;;;18.53;68.78;101441.69;4951504;28;47180;-69
2023/10/02 05:05:41;;;;;;;;;17.33;15.00;;;;;18.99;68.93;101514.44;4943617;28;45451;-69
2023/10/02 05:08:17;;;;;;;;;20.33;18.67;;;;;18.96;68.35;101498.66;4945216;28;45347;-68
2023/10/02 05:10:47;;;;;;;;;18.00;14.00;;;;;19.03;68.65;101523.88;4950357;28;45265;-68
2023/10/02 05:13:13;;;;;;;;;22.33;18.67;;;;;19.01;69.19;101517.78;4945285;28;46518;-69
2023/10/02 05:16:06;;;;;;;;;23.67;19.33;;;;;18.99;68.57;101521.69;4947672;28;45235;-69
2023/10/02 05:18:24;;;;;;;;;21.33;17.33;;;;;18.62;68.72;101444.31;4948139;28;45241;-70
2023/10/02 05:20:49;;;;;;;;;22.67;18.33;;;;;18.87;68.71;101486.25;4959583;28;45684;-68
2023/10/02 05:23:15;;;;;;;;;20.00;16.33;;;;;18.72;68.25;101467.34;4958706;28;63143;-68
2023/10/02 05:25:41;;;;;;;;;15.33;14.33;;;;;19.00;68.63;101517.97;4948634;28;45474;-70
2023/10/02 05:28:07;;;;;;;;;20.67;17.33;;;;;18.82;68.45;101472.47;4940072;28;45491;-69
2023/10/02 05:30:42;;;;;;;;;21.33;17.67;;;;;19.02;68.20;101514.13;4949427;28;45328;-70
2023/10/02 05:33:07;;;;;;;;;16.67;15.67;;;;;18.80;68.19;101474.50;4958967;28;47573;-70
2023/10/02 05:35:33;;;;;;;;;16.33;16.00;;;;;18.99;68.69;101514.44;4942849;28;45469;-70
2023/10/02 05:37:58;;;;;;;;;27.33;19.33;;;;;18.73;68.95;101478.97;4957063;28;45476;-69
2023/10/02 05:43:09;;;;;;;;;20.67;19.33;;;;;19.04;68.46;101520.16;4948491;28;46380;-70
2023/10/02 05:48:15;;;;;;;;;18.33;13.67;;;;;18.99;67.77;101519.84;4938923;28;45447;-70
2023/10/02 05:50:47;;;;;;;;;18.67;16.00;;;;;18.98;67.80;101514.63;4940236;28;45434;-68
2023/10/02 05:53:17;;;;;;;;;19.67;19.67;;;;;18.91;67.64;101509.13;4940685;28;47846;-69
2023/10/02 05:58:30;;;;;;;;;18.67;16.00;;;;;18.92;67.52;101509.97;4948443;28;45540;-69
2023/10/02 06:01:18;;;;;;;;;24.00;18.33;;;;;18.89;67.48;101510.34;4947052;28;45470;-72
2023/10/02 06:04:00;;;;;;;;;21.33;18.67;;;;;18.86;67.70;101503.44;4947828;28;45918;-71
2023/10/02 06:06:28;;;;;;;;;25.00;21.67;;;;;18.89;67.31;101502.25;4951413;28;45224;-69
2023/10/02 06:08:55;;;;;;;;;19.33;18.00;;;;;18.90;67.31;101496.69;4939547;28;45500;-70
2023/10/02 06:11:35;;;;;;;;;20.33;18.33;;;;;18.94;67.16;101503.38;4951366;28;45541;-68
2023/10/02 06:14:11;;;;;;;;;22.00;18.00;;;;;18.96;67.53;101503.19;4945882;28;48177;-69
2023/10/02 06:16:39;;;;;;;;;14.33;12.67;;;;;18.97;67.45;101503.00;4944209;28;45363;-68
2023/10/02 06:19:06;;;;;;;;;15.33;14.67;;;;;18.92;66.77;101505.41;4946822;28;45662;-69
2023/10/02 06:21:47;;;;;;;;;20.67;16.33;;;;;18.99;67.10;101506.38;4956520;28;45353;-71
2023/10/02 06:24:16;;;;;;;;;26.33;18.00;;;;;19.03;66.75;101507.69;4951680;28;47651;-69
2023/10/02 06:26:53;;;;;;;;;24.33;21.33;;;;;18.83;66.67;101484.97;4951343;28;45575;-69
2023/10/02 06:29:25;;;;;;;;;20.33;16.33;;;;;18.96;66.83;101512.13;4952277;28;45405;-70
2023/10/02 06:32:05;;;;;;;;;24.00;19.67;;;;;19.04;66.60;101528.25;4950844;28;45409;-70
2023/10/02 06:34:37;;;;;;;;;16.67;15.67;;;;;19.11;67.01;101531.88;4939501;28;45830;-69
2023/10/02 06:37:07;;;;;;;;;20.67;18.00;;;;;19.09;66.34;101511.53;4945968;28;45524;-69
2023/10/02 06:39:36;;;;;;;;;16.33;15.33;;;;;19.21;66.19;101530.78;4951698;28;45533;-69
2023/10/02 06:42:04;;;;;;;;;20.33;18.33;;;;;19.27;66.08;101522.00;4940011;28;45451;-69
2023/10/02 06:44:52;;;;;;;;;22.67;17.67;;;;;19.30;65.82;101535.94;4942085;28;46247;-69
2023/10/02 06:47:18;;;;;;;;;21.00;17.00;;;;;19.26;65.91;101529.25;4947704;28;45592;-68
2023/10/02 06:49:46;;;;;;;;;23.33;16.67;;;;;18.98;65.88;101476.91;4942347;28;45289;-69
2023/10/02 06:52:15;;;;;;;;;16.00;14.33;;;;;19.21;65.61;101503.81;4941053;28;45524;-70
2023/10/02 06:54:45;;;;;;;;;19.00;14.67;;;;;19.40;65.67;101530.28;4939222;28;46676;-68
2023/10/02 06:57:13;;;;;;;;;21.00;21.00;;;;;19.17;65.54;101480.94;4941072;28;45340;-70
2023/10/02 06:59:51;;;;;;;;;24.67;22.33;;;;;19.44;65.23;101527.06;4939682;28;45386;-69
2023/10/02 07:02:17;;;;;;;;;26.00;19.00;;;;;19.51;65.17;101537.94;4941705;28;45245;-68
2023/10/02 07:04:44;;;;;;;;;17.33;16.67;;;;;19.57;65.23;101529.13;4940373;28;47001;-69
2023/10/02 07:07:12;;;;;;;;;23.00;18.50;;;;;19.61;64.93;101538.53;4940281;28;45360;-68
2023/10/02 07:09:39;;;;;;;;;26.33;20.33;;;;;19.64;64.79;101527.41;4939954;28;45378;-69
2023/10/02 07:12:14;;;;;;;;;20.67;15.67;;;;;19.83;64.80;101530.59;4946933;28;45492;-69
2023/10/02 07:14:42;;;;;;;;;22.33;16.33;;;;;20.26;63.56;101527.03;4948444;28;45831;-69
2023/10/02 07:17:27;;;;;;;;;41.00;33.00;;;;;20.82;62.57;101531.81;4943884;28;45482;-69
2023/10/02 07:20:00;;;;;;;;;20.00;18.67;;;;;21.35;60.22;101522.38;4939741;28;45628;-68
2023/10/02 07:22:26;;;;;;;;;20.67;17.00;;;;;22.02;59.18;101526.34;4946398;28;45878;-84
2023/10/02 07:24:55;;;;;;;;;21.33;17.33;;;;;22.54;57.66;101530.38;4947848;28;45698;-69
2023/10/02 07:27:25;;;;;;;;;23.33;18.67;;;;;22.99;55.06;101513.41;4951139;28;45474;-69
2023/10/02 07:29:57;;;;;;;;;22.33;18.33;;;;;23.08;53.35;101467.94;4951804;28;45408;-70
2023/10/02 07:32:27;;;;;;;;;20.33;17.33;;;;;23.71;53.20;101502.75;4954197;28;45540;-69
2023/10/02 07:34:54;;;;;;;;;21.00;18.00;;;;;24.20;51.95;101521.19;4955355;28;46315;-69
2023/10/02 07:37:22;;;;;;;;;18.67;17.33;;;;;24.41;51.48;101531.78;4948063;28;45306;-70
2023/10/02 07:39:49;;;;;;;;;19.33;17.33;;;;;24.68;50.06;101516.19;4948046;28;45449;-69
2023/10/02 07:42:16;;;;;;;;;19.67;17.67;;;;;24.85;49.18;101502.91;4950824;28;45437;-69
2023/10/02 07:44:42;;;;;;;;;17.00;16.67;;;;;25.06;49.02;101529.78;4948426;28;47473;-68
2023/10/02 07:47:16;;;;;;;;;25.00;18.33;;;;;25.07;48.68;101503.41;4938208;28;52300;-70
2023/10/02 07:49:46;;;;;;;;;20.00;17.67;;;;;25.31;47.80;101515.34;4955089;28;45443;-69
2023/10/02 07:52:26;;;;;;;;;17.67;16.33;;;;;25.40;48.27;101519.44;4955359;28;45607;-70
2023/10/02 07:54:56;;;;;;;;;16.33;15.67;;;;;25.74;47.32;101515.38;4949499;28;45848;-71
2023/10/02 07:57:21;;;;;;;;;20.33;17.33;;;;;25.96;47.10;101518.50;4953581;28;45519;-70
2023/10/02 07:59:49;;;;;;;;;25.67;18.33;;;;;26.05;46.88;101507.09;4952362;28;45270;-71
2023/10/02 08:02:23;;;;;;;;;24.67;20.33;;;;;26.23;45.73;101508.97;4951256;28;45343;-68
2023/10/02 08:04:51;;;;;;;;;31.33;21.00;;;;;26.42;45.87;101512.50;4944630;28;45838;-70
2023/10/02 08:07:20;;;;;;;;;25.67;23.33;;;;;26.62;45.59;101510.31;4959050;28;45243;-69
2023/10/02 08:09:49;;;;;;;;;23.67;21.67;;;;;26.93;45.32;101524.78;4945352;28;45468;-69
2023/10/02 08:12:29;;;;;;;;;17.00;15.00;;;;;26.94;44.63;101494.53;4953881;28;45485;-68
2023/10/02 08:15:01;;;;;;;;;23.33;19.67;;;;;27.23;44.46;101517.41;4950218;28;46077;-69
2023/10/02 08:20:16;;;;;;;;;20.00;17.67;;;;;27.57;42.53;101521.22;4944325;28;45946;-70
2023/10/02 08:22:46;;;;;;;;;23.67;21.33;;;;;27.57;42.89;101514.91;4953108;28;45352;-71
2023/10/02 08:25:14;;;;;;;;;21.67;20.67;;;;;27.51;42.62;101522.19;4955166;28;47424;-69
2023/10/02 08:27:41;;;;;;;;;20.00;20.00;;;;;27.52;43.07;101512.06;4953473;28;45420;-69
2023/10/02 08:30:19;;;;;;;;;21.33;20.33;;;;;27.67;42.87;101515.19;4950494;28;45499;-68
2023/10/02 08:32:45;;;;;;;;;24.33;20.33;;;;;27.80;41.88;101514.09;4949286;28;45707;-71
2023/10/02 08:35:13;;;;;;;;;25.00;21.00;;;;;27.86;42.33;101508.53;4952796;28;46683;-68
2023/10/02 08:37:42;;;;;;;;;21.67;17.00;;;;;27.86;42.20;101507.69;4941764;28;45964;-69
2023/10/02 08:40:08;;;;;;;;;19.67;17.33;;;;;27.67;41.46;101476.94;4944919;28;45445;-69
2023/10/02 08:42:34;;;;;;;;;30.00;27.33;;;;;27.94;41.60;101511.94;4949848;28;46563;-80
2023/10/02 08:45:00;;;;;;;;;22.67;20.00;;;;;28.16;40.94;101519.25;4952669;28;46546;-71
2023/10/02 08:47:26;;;;;;;;;25.33;20.33;;;;;28.39;40.41;101517.56;4951316;28;45490;-71
2023/10/02 08:50:04;;;;;;;;;24.67;22.33;;;;;28.65;40.24;101518.91;4954922;28;45235;-73
2023/10/02 08:52:38;;;;;;;;;21.33;16.67;;;;;28.96;39.30;101506.59;4949558;28;45696;-73
2023/10/02 08:55:33;;;;;;;;;22.00;21.00;;;;;29.33;38.22;101523.38;4946388;28;45745;-71
2023/10/02 08:58:15;;;;;;;;;21.33;18.33;;;;;29.24;38.25;101514.75;4957416;28;45528;-70
2023/10/02 09:01:04;;;;;;;;;28.67;22.00;;;;;29.19;38.34;101506.44;4954517;28;45414;-69
2023/10/02 09:03:30;;;;;;;;;27.67;20.67;;;;;29.21;38.07;101508.94;4958191;28;45321;-71
2023/10/02 09:06:25;;;;;;;;;25.33;24.00;;;;;28.90;37.85;101463.81;4952392;28;46303;-72
2023/10/02 09:09:12;;;;;;;;;23.00;20.33;;;;;29.17;38.27;101511.34;4958296;28;45327;-73
2023/10/02 09:11:34;;;;;;;;;27.00;22.00;;;;;29.19;37.91;101503.69;4951119;28;45599;-74
2023/10/02 09:14:21;;;;;;;;;23.00;22.67;;;;;29.42;38.29;101510.06;4945658;28;45737;-72
2023/10/02 09:17:07;;;;;;;;;23.33;21.00;;;;;29.55;37.48;101504.28;4958081;28;46914;-73
2023/10/02 09:19:37;;;;;;;;;29.67;25.00;;;;;29.79;37.39;101505.72;4959026;28;46536;-72
2023/10/02 09:22:12;;;;;;;;;25.67;22.00;;;;;30.15;36.85;101509.78;4953281;28;45597;-72
2023/10/02 09:24:38;;;;;;;;;21.67;20.67;;;;;30.63;36.03;101499.09;4926424;28;45431;-73
2023/10/02 09:27:28;;;;;;;;;26.67;23.67;;;;;30.95;35.33;101490.88;4951081;28;46574;-71
2023/10/02 09:30:21;;;;;;;;;25.33;25.33;;;;;31.15;34.70;101480.06;4944341;28;45526;-71
2023/10/02 09:32:52;;;;;;;;;24.67;21.67;;;;;31.46;34.06;101503.97;4955989;28;45478;-73
2023/10/02 09:35:32;;;;;;;;;23.00;18.67;;;;;31.59;34.55;101501.81;4956286;28;45506;-73
2023/10/02 09:38:02;;;;;;;;;21.67;20.67;;;;;31.64;33.94;101488.13;4947981;28;45750;-72
2023/10/02 09:40:45;;;;;;;;;26.67;22.33;;;;;31.58;34.19;101478.16;4956071;28;45553;-72
2023/10/02 09:43:18;;;;;;;;;21.00;18.00;;;;;31.60;34.36;101489.72;4960464;28;45237;-71
2023/10/02 09:45:46;;;;;;;;;27.33;22.00;;;;;31.53;34.22;101481.72;4950008;28;45456;-72
2023/10/02 09:51:06;;;;;;;;;23.33;20.33;;;;;30.91;35.22;101479.59;4957543;28;45454;-72
2023/10/02 09:53:41;;;;;;;;;25.00;23.00;;;;;30.63;35.69;101472.47;4951377;28;45496;-72
2023/10/02 09:56:16;;;;;;;;;21.67;20.33;;;;;29.92;36.10;101419.53;4941963;28;45692;-71
2023/10/02 09:59:12;;;;;;;;;23.33;20.67;;;;;29.72;36.42;101458.50;4952686;28;45568;-76
2023/10/02 10:01:38;;;;;;;;;24.33;20.33;;;;;28.98;37.69;101401.25;4958111;28;45485;-73
2023/10/02 10:04:30;;;;;;;;;23.33;20.00;;;;;29.04;38.18;101448.72;4945612;28;45566;-73
2023/10/02 10:07:09;;;;;;;;;30.00;24.00;;;;;28.50;38.48;101456.50;4956312;28;45576;-71
2023/10/02 10:09:51;;;;;;;;;25.00;23.00;;;;;28.18;39.28;101445.19;4941318;28;46556;-71
2023/10/02 10:12:50;;;;;;;;;29.33;25.33;;;;;27.90;39.97;101437.81;4931940;28;45387;-70
2023/10/02 10:15:23;;;;;;;;;28.33;23.67;;;;;27.74;40.80;101454.94;4946999;28;45580;-74
2023/10/02 10:17:51;;;;;;;;;28.00;20.33;;;;;27.58;40.56;101446.38;4946121;28;45486;-72
2023/10/02 10:20:20;;;;;;;;;24.00;21.33;;;;;27.43;40.77;101443.34;4940234;28;47877;-71
2023/10/02 10:22:55;;;;;;;;;28.00;25.00;;;;;27.28;41.28;101457.47;4945728;28;45660;-71
2023/10/02 10:27:54;;;;;;;;;26.33;22.00;;;;;27.07;42.10;101443.56;4951159;28;45224;-71
2023/10/02 10:30:24;;;;;;;;;22.67;20.00;;;;;26.97;42.57;101436.75;4939455;28;46451;-71
2023/10/02 10:33:20;;;;;;;;;26.33;24.67;;;;;26.61;42.80;101426.84;4940354;28;45610;-72
2023/10/02 10:35:56;;;;;;;;;29.33;25.67;;;;;26.34;43.30;101411.91;4931633;28;45598;-80
2023/10/02 10:41:40;;;;;;;;;29.00;24.33;;;;;26.21;44.31;101429.28;4948478;28;47014;-70
2023/10/02 10:44:12;;;;;;;;;27.67;23.67;;;;;26.10;44.79;101432.81;4929454;28;45297;-73
2023/10/02 10:46:47;;;;;;;;;14.00;12.67;;;;;25.87;44.75;101410.91;4950173;28;45803;-74
2023/10/02 10:49:19;;;;;;;;;27.00;23.33;;;;;25.85;44.65;101415.75;4939824;28;45396;-69
2023/10/02 10:51:52;;;;;;;;;20.67;18.67;;;;;25.85;45.08;101424.75;4936697;28;48449;-69
2023/10/02 10:54:30;;;;;;;;;27.67;23.67;;;;;25.81;45.57;101417.25;4946861;28;45349;-70
2023/10/02 10:56:58;;;;;;;;;28.67;24.00;;;;;25.73;45.66;101410.22;4957537;28;45429;-68
2023/10/02 10:59:25;;;;;;;;;26.00;22.33;;;;;25.73;45.71;101415.66;4951062;28;45510;-69
2023/10/02 11:04:40;;;;;;;;;27.67;24.67;;;;;25.59;46.19;101404.06;4949572;28;45281;-70
2023/10/02 11:07:25;;;;;;;;;35.33;30.33;;;;;25.58;46.62;101391.50;4952791;28;45597;-69
2023/10/02 11:12:57;;;;;;;;;25.67;23.00;;;;;25.21;46.33;101329.94;4948780;28;46139;-69
2023/10/02 11:18:19;;;;;;;;;25.33;20.33;;;;;25.49;46.61;101376.53;4953822;28;45477;-68
2023/10/02 11:20:49;;;;;;;;;28.33;23.67;;;;;25.45;46.68;101381.63;4949038;28;45520;-70
2023/10/02 11:23:37;;;;;;;;;22.00;18.00;;;;;25.45;46.53;101375.34;4939377;28;46426;-70
2023/10/02 11:26:13;;;;;;;;;30.00;24.00;;;;;25.46;46.86;101377.84;4950174;28;45450;-70
2023/10/02 11:28:41;;;;;;;;;24.67;19.00;;;;;25.29;46.22;101354.16;4947067;28;45483;-68
2023/10/02 11:31:32;;;;;;;;;29.67;25.00;;;;;25.44;46.41;101362.78;4950051;28;45483;-70
2023/10/02 11:34:11;;;;;;;;;32.67;31.00;;;;;25.33;46.22;101341.75;4951649;28;46667;-69
2023/10/02 11:36:39;;;;;;;;;26.67;24.00;;;;;25.54;46.29;101378.56;4946787;28;45633;-69
2023/10/02 11:39:16;;;;;;;;;24.00;20.67;;;;;25.53;46.39;101364.13;4948051;28;45568;-70
2023/10/02 11:41:42;;;;;;;;;30.33;24.33;;;;;25.62;46.94;101381.81;4937099;28;45643;-69
2023/10/02 11:44:11;;;;;;;;;23.00;20.67;;;;;25.59;46.34;101365.94;4954847;28;45933;-71
2023/10/02 11:46:37;;;;;;;;;21.33;20.33;;;;;25.68;46.27;101385.56;4943149;28;45221;-74
2023/10/02 11:49:03;;;;;;;;;25.00;24.00;;;;;25.67;46.13;101362.94;4935684;28;45286;-71
2023/10/02 11:51:29;;;;;;;;;30.67;21.00;;;;;25.70;46.06;101367.94;4955863;28;45597;-70
2023/10/02 11:53:56;;;;;;;;;24.33;22.33;;;;;25.84;46.27;101362.34;4955141;28;49885;-69
2023/10/02 11:56:23;;;;;;;;;26.00;23.00;;;;;25.86;45.98;101355.59;4943473;28;45263;-73
2023/10/02 11:58:49;;;;;;;;;23.33;20.00;;;;;25.54;45.93;101294.16;4950716;28;45450;-71
2023/10/02 12:01:15;;;;;;;;;27.00;21.33;;;;;25.90;46.37;101339.59;4936680;28;45452;-70
2023/10/02 12:03:41;;;;;;;;;23.33;19.33;;;;;25.92;46.16;101351.09;4953691;28;46471;-73
2023/10/02 12:06:19;;;;;;;;;20.33;17.00;;;;;25.52;46.04;101280.78;4958121;28;45243;-74
2023/10/02 12:08:44;;;;;;;;;31.00;24.00;;;;;25.84;46.20;101324.19;4952011;28;45546;-71
2023/10/02 12:11:15;;;;;;;;;25.00;23.33;;;;;25.96;45.82;101344.94;4948511;28;45783;-71
2023/10/02 12:13:45;;;;;;;;;23.67;19.00;;;;;26.00;45.67;101343.41;4956154;28;46451;-72
2023/10/02 12:16:11;;;;;;;;;28.33;20.67;;;;;25.96;45.42;101323.16;4948915;28;45559;-73
2023/10/02 12:18:43;;;;;;;;;23.67;20.67;;;;;25.89;45.79;101307.97;4952900;28;45563;-71